Hinckley, ME (04944)

4:13 PM EST on February 10, 2016 (GMT -0500)
East Pond Belgrade Lakes | | Change Station
CLOSE
Current Station
Personal Weather Station
Location: Smithfield, ME
Elevation: 272 ft
Nearby Weather Stations

Elev 272 ft 44.62 °N, 69.78 °W | Updated 7 minutes ago

Partly Cloudy
Partly Cloudy
30.7 °F
Feels Like 31 °F
N
0.0
Wind Variable Wind from SSE
Gusts 1.0 mph

Today
High -- | Low -- °F
--% Chance of Precip.
Yesterday
High -- | Low -- °F
Precip. -- in
Pressure 29.61 in
Visibility 10.0 miles
Clouds Scattered Clouds 6500 ft
Mostly Cloudy 8500 ft
Windchill 31 °F
Dew Point 24 °F
Humidity 76%
Rainfall 0.11 in
Snow Depth Not available.
6:46 AM 4:59 PM
Waxing Crescent, 7% visible
METAR KWVL 102056Z AUTO 20005KT 10SM SCT065 BKN085 00/M05 A2949 RMK AO2 SLP025 T00001050 55005 FZRANO
Pressure 29.61 in
Visibility 10.0 miles
Clouds Scattered Clouds 6500 ft
Mostly Cloudy 8500 ft
Windchill 31 °F
Dew Point 24 °F
Humidity 76%
Rainfall 0.11 in
Snow Depth Not available.
6:46 AM 4:59 PM
Waxing Crescent, 7% visible
METAR KWVL 102056Z AUTO 20005KT 10SM SCT065 BKN085 00/M05 A2949 RMK AO2 SLP025 T00001050 55005 FZRANO

10-Day Weather Forecast

Almanac

Astronomy

Feb. 10, 2016 Rise Set
Actual Time
Civil Twilight
Nautical Twilight
Astronomical Twilight
Moon
Length of Visible Light
Length of Day
Tomorrow will be .
, % of the Moon is Illuminated

Today's Extremes

State Highs State Lows

Community

WunderPhotos

Upload Photos

1,891,949 photos uploaded!

WunderBlog® & News

Nearby

Air Quality

  Air Quality AQ Index Pollutant
Not available.

Snow Depth

Station Depth Elevation

Earthquake Activity

City Distance Mag. Time & Date
Minimum magnitude displayed is 2.5.

Coastal Water Temperatures

Place Temperature

Stations

Nearby Weather Stations

Station Location Temp. Windchill Dew Point Humidity Wind Precip. Elev Updated Type
                   

Watches & Warnings

There are currently no watches in effect.